Yuma, Colorado
Current Conditions -  °F | °C
As of 2:53 AM on Monday 22 Dec 2014 (Local Time) from KAKO Reporting Station
Few Clouds Few Clouds  
Wind Chill: 22°   Ceiling: Unl
Heat Index: 31°   Visibility: 10mi
Dew Point: 28°   Wind: 10mph
Humidity: 89%   Direction: 280°W
Pressure: 29.66"   Gusts: NA
Location:  40.12°N, 102.73°W
Report Text: KAKO 220953Z AUTO 28009KT 10SM FEW120 M01/M02 A2966 RMK AO2 SLP052 T10061022
Loading
Personal Weather Stations






























Interactive Weather Map New forecast layout! Learn more

10-Day Weather Forecast

Advertisements
Track Severe Weather on mobile